createdAt,value
2023-03-08T00:01:24.472Z,113.90
2023-03-08T00:03:55.469Z,113.87
2023-03-08T00:06:24.843Z,112.83
2023-03-08T00:09:00.546Z,113.57
2023-03-08T00:11:28.993Z,113.63
2023-03-08T00:13:57.250Z,113.50
2023-03-08T00:16:25.364Z,113.57
2023-03-08T00:18:52.352Z,113.57
2023-03-08T00:21:19.589Z,113.27
2023-03-08T00:23:47.594Z,113.87
2023-03-08T00:26:14.766Z,113.07
2023-03-08T00:28:42.269Z,113.30
2023-03-08T00:31:13.397Z,113.37
2023-03-08T00:33:41.474Z,113.67
2023-03-08T00:36:17.807Z,112.70
2023-03-08T00:38:46.782Z,112.97
2023-03-08T00:41:15.181Z,113.27
2023-03-08T00:43:43.214Z,113.07
2023-03-08T00:46:11.773Z,112.90
2023-03-08T00:48:39.094Z,112.10
2023-03-08T00:51:06.304Z,113.87
2023-03-08T00:53:34.435Z,112.70
2023-03-08T00:56:01.824Z,113.43
2023-03-08T00:58:31.453Z,111.80
2023-03-08T01:00:59.951Z,113.33
2023-03-08T01:03:27.363Z,112.00
2023-03-08T01:05:58.573Z,112.50
2023-03-08T01:08:26.946Z,113.17
2023-03-08T01:10:58.753Z,113.63
2023-03-08T01:13:31.548Z,113.00
2023-03-08T01:15:59.615Z,113.97
2023-03-08T01:18:27.046Z,112.97
2023-03-08T01:20:59.820Z,112.27
2023-03-08T01:23:27.568Z,113.33
2023-03-08T01:26:16.021Z,111.77
2023-03-08T01:28:43.695Z,113.67
2023-03-08T01:31:24.998Z,112.03
2023-03-08T01:33:55.817Z,113.13
2023-03-08T01:36:27.228Z,112.73
2023-03-08T01:38:54.558Z,113.17
2023-03-08T01:41:30.350Z,112.80
2023-03-08T01:43:58.116Z,112.53
2023-03-08T01:46:35.222Z,113.07
2023-03-08T01:49:35.124Z,112.97
2023-03-08T01:52:16.600Z,112.60
2023-03-08T01:54:49.569Z,113.27
2023-03-08T01:57:24.945Z,113.00
2023-03-08T01:59:58.856Z,113.27
2023-03-08T02:02:36.894Z,113.23
2023-03-08T02:05:04.157Z,113.33
2023-03-08T02:07:31.184Z,113.67
2023-03-08T02:09:59.037Z,112.97
2023-03-08T02:12:26.769Z,113.17
2023-03-08T02:14:54.658Z,112.60
2023-03-08T02:17:23.453Z,112.40
2023-03-08T02:20:08.201Z,113.33
2023-03-08T02:22:43.750Z,112.97
2023-03-08T02:25:17.634Z,112.90
2023-03-08T02:27:45.761Z,113.03
2023-03-08T02:30:22.160Z,112.60
2023-03-08T02:32:49.639Z,112.77
2023-03-08T02:35:17.573Z,112.67
2023-03-08T02:37:44.932Z,113.07
2023-03-08T02:40:13.362Z,112.30
2023-03-08T02:42:40.533Z,112.00
2023-03-08T02:45:09.124Z,112.10
2023-03-08T02:47:36.321Z,112.87
2023-03-08T02:50:05.858Z,113.07
2023-03-08T02:52:32.971Z,112.50
2023-03-08T02:55:00.371Z,112.87
2023-03-08T02:57:27.333Z,112.97
2023-03-08T02:59:55.263Z,112.57
2023-03-08T03:02:22.929Z,111.77
2023-03-08T03:04:50.640Z,112.77
2023-03-08T03:07:17.932Z,112.87
2023-03-08T03:09:45.415Z,111.67
2023-03-08T03:12:13.858Z,112.77
2023-03-08T03:14:43.246Z,112.67
2023-03-08T03:17:10.770Z,111.67
2023-03-08T03:19:38.600Z,112.13
2023-03-08T03:22:06.366Z,113.20
2023-03-08T03:24:34.571Z,112.87
2023-03-08T03:27:03.126Z,112.80
2023-03-08T03:29:34.266Z,113.03
2023-03-08T03:32:11.593Z,113.10
2023-03-08T03:34:39.400Z,112.70
2023-03-08T03:37:07.209Z,113.10
2023-03-08T03:39:38.987Z,113.07
2023-03-08T03:42:09.251Z,113.07
2023-03-08T03:44:39.432Z,113.07
2023-03-08T03:47:09.683Z,111.87
2023-03-08T03:49:36.706Z,112.50
2023-03-08T03:52:04.068Z,112.60
2023-03-08T03:54:38.290Z,111.67
2023-03-08T03:57:05.895Z,111.80
2023-03-08T03:59:37.159Z,113.00
2023-03-08T04:02:04.769Z,112.80
2023-03-08T04:04:52.070Z,112.20
2023-03-08T04:07:23.635Z,112.57
2023-03-08T04:09:57.023Z,112.00
2023-03-08T04:12:24.112Z,112.87
2023-03-08T04:14:53.349Z,111.27
2023-03-08T04:17:21.795Z,111.37
2023-03-08T04:19:52.444Z,111.47
2023-03-08T04:22:21.834Z,112.57
2023-03-08T04:24:53.416Z,112.70
2023-03-08T04:27:26.572Z,111.70
2023-03-08T04:29:54.072Z,112.57
2023-03-08T04:32:23.095Z,112.40
2023-03-08T04:34:55.197Z,112.00
2023-03-08T04:37:26.210Z,112.47
2023-03-08T04:39:57.193Z,112.23
2023-03-08T04:42:25.783Z,110.97
2023-03-08T04:44:52.755Z,112.20
2023-03-08T04:47:23.726Z,112.80
2023-03-08T04:49:51.219Z,110.87
2023-03-08T04:52:19.190Z,111.80
2023-03-08T04:54:47.985Z,112.70
2023-03-08T04:57:20.987Z,111.83
2023-03-08T04:59:50.005Z,112.27
2023-03-08T05:02:17.429Z,111.27
2023-03-08T05:04:46.594Z,111.60
2023-03-08T05:07:13.724Z,111.37
2023-03-08T05:09:42.918Z,111.50
2023-03-08T05:12:10.174Z,111.80
2023-03-08T05:14:46.906Z,109.60
2023-03-08T05:17:14.667Z,110.03
2023-03-08T05:19:42.053Z,112.57
2023-03-08T05:22:10.181Z,111.70
2023-03-08T05:24:44.287Z,111.17
2023-03-08T05:27:13.346Z,111.80
2023-03-08T05:29:40.793Z,112.00
2023-03-08T05:32:12.680Z,111.97
2023-03-08T05:34:40.815Z,112.17
2023-03-08T05:37:11.968Z,112.17
2023-03-08T05:39:42.040Z,112.20
2023-03-08T05:42:17.079Z,111.77
2023-03-08T05:44:46.824Z,111.20
2023-03-08T05:47:18.792Z,110.90
2023-03-08T05:49:45.793Z,112.00
2023-03-08T05:52:14.569Z,112.67
2023-03-08T05:54:42.512Z,111.43
2023-03-08T05:57:14.811Z,111.70
2023-03-08T05:59:43.069Z,112.37
2023-03-08T06:02:13.219Z,112.03
2023-03-08T06:04:45.101Z,112.43
2023-03-08T06:07:13.997Z,112.00
2023-03-08T06:09:46.038Z,112.40
2023-03-08T06:12:15.828Z,111.50
2023-03-08T06:14:44.947Z,111.27
2023-03-08T06:17:14.157Z,111.80
2023-03-08T06:19:46.487Z,112.57
2023-03-08T06:22:17.010Z,111.60
2023-03-08T06:24:49.470Z,112.37
2023-03-08T06:27:20.288Z,112.40
2023-03-08T06:29:50.247Z,111.77
2023-03-08T06:32:18.345Z,111.30
2023-03-08T06:34:47.014Z,112.07
2023-03-08T06:37:14.920Z,112.60
2023-03-08T06:39:41.898Z,112.17
2023-03-08T06:42:09.143Z,112.37
2023-03-08T06:44:38.541Z,112.17
2023-03-08T06:47:06.751Z,112.87
2023-03-08T06:49:34.558Z,111.20
2023-03-08T06:52:02.114Z,112.27
2023-03-08T06:54:30.019Z,112.20
2023-03-08T06:56:57.467Z,112.47
2023-03-08T06:59:24.845Z,112.10
2023-03-08T07:01:52.298Z,111.53
2023-03-08T07:04:19.810Z,110.77
2023-03-08T07:06:47.437Z,111.07
2023-03-08T07:09:14.990Z,112.33
2023-03-08T07:11:42.370Z,112.23
2023-03-08T07:14:09.778Z,112.27
2023-03-08T07:16:37.405Z,112.33
2023-03-08T07:19:04.827Z,112.27
2023-03-08T07:21:32.226Z,112.03
2023-03-08T07:23:59.679Z,112.07
2023-03-08T07:26:27.078Z,112.07
2023-03-08T07:28:55.759Z,112.57
2023-03-08T07:31:23.174Z,112.17
2023-03-08T07:33:50.587Z,111.40
2023-03-08T07:36:17.594Z,111.27
2023-03-08T07:38:46.471Z,112.37
2023-03-08T07:41:14.018Z,112.43
2023-03-08T07:43:41.469Z,112.37
2023-03-08T07:46:14.729Z,110.97
2023-03-08T07:48:42.161Z,112.07
2023-03-08T07:51:10.189Z,112.77
2023-03-08T07:53:38.476Z,112.40
2023-03-08T07:56:06.744Z,112.10
2023-03-08T07:58:34.249Z,111.30
2023-03-08T08:01:01.655Z,112.47
2023-03-08T08:03:30.190Z,112.73
2023-03-08T08:06:02.005Z,112.87
2023-03-08T08:08:29.064Z,112.67
2023-03-08T08:10:56.438Z,112.67
2023-03-08T08:13:23.891Z,111.43
2023-03-08T08:16:02.345Z,112.17
2023-03-08T08:18:29.756Z,113.07
2023-03-08T08:21:13.542Z,112.53
2023-03-08T08:23:42.246Z,112.30
2023-03-08T08:26:18.431Z,112.93
2023-03-08T08:28:49.644Z,112.70
2023-03-08T08:31:21.843Z,112.67
2023-03-08T08:33:50.065Z,112.47
2023-03-08T08:36:20.459Z,111.37
2023-03-08T08:38:48.020Z,112.87
2023-03-08T08:41:19.210Z,112.10
2023-03-08T08:43:48.313Z,113.07
2023-03-08T08:46:17.110Z,112.87
2023-03-08T08:48:44.570Z,111.90
2023-03-08T08:51:14.404Z,112.37
2023-03-08T08:53:41.812Z,112.27
2023-03-08T08:56:26.283Z,111.77
2023-03-08T08:58:59.815Z,112.67
2023-03-08T09:04:00.071Z,112.27
2023-03-08T09:06:29.430Z,111.50
2023-03-08T09:09:00.504Z,111.50
2023-03-08T09:11:28.445Z,112.63
2023-03-08T09:13:56.162Z,112.53
2023-03-08T09:16:33.871Z,112.67
2023-03-08T09:19:04.700Z,112.63
2023-03-08T09:21:33.257Z,112.57
2023-03-08T09:24:05.078Z,112.83
2023-03-08T09:26:33.809Z,112.87
2023-03-08T09:29:05.228Z,112.37
2023-03-08T09:31:36.241Z,112.00
2023-03-08T09:34:08.489Z,112.70
2023-03-08T09:36:40.103Z,112.90
2023-03-08T09:39:13.509Z,111.80
2023-03-08T09:41:56.186Z,112.70
2023-03-08T09:44:35.085Z,111.37
2023-03-08T09:47:28.295Z,112.57
2023-03-08T09:50:08.866Z,111.97
2023-03-08T09:52:43.510Z,112.47
2023-03-08T09:55:30.259Z,111.97
2023-03-08T09:58:25.251Z,111.30
2023-03-08T10:00:53.347Z,111.00
2023-03-08T10:03:52.027Z,110.77
2023-03-08T10:06:59.877Z,110.37
2023-03-08T10:09:41.468Z,111.00
2023-03-08T10:13:25.984Z,112.07
2023-03-08T10:16:24.592Z,110.27
2023-03-08T10:19:52.863Z,111.87
2023-03-08T10:22:30.842Z,111.80
2023-03-08T10:25:14.814Z,111.70
2023-03-08T10:27:42.277Z,111.97
2023-03-08T10:30:19.374Z,112.33
2023-03-08T10:32:56.567Z,112.00
2023-03-08T10:36:09.367Z,111.67
2023-03-08T10:38:38.212Z,111.17
2023-03-08T10:41:15.376Z,111.40
2023-03-08T10:43:55.674Z,111.10
2023-03-08T10:46:31.880Z,110.77
2023-03-08T10:49:17.250Z,110.50
2023-03-08T10:52:01.558Z,111.00
2023-03-08T10:54:29.549Z,111.77
2023-03-08T10:57:02.062Z,111.37
2023-03-08T10:59:35.453Z,112.07
2023-03-08T11:02:22.263Z,111.47
2023-03-08T11:04:58.298Z,111.37
2023-03-08T11:07:33.178Z,111.67
2023-03-08T11:10:12.497Z,110.90
2023-03-08T11:12:40.300Z,111.47
2023-03-08T11:15:20.265Z,111.77
2023-03-08T11:18:24.514Z,111.67
2023-03-08T11:21:26.948Z,111.87
2023-03-08T11:24:47.443Z,111.47
2023-03-08T11:27:30.304Z,110.20
2023-03-08T11:30:27.769Z,111.77
2023-03-08T11:33:22.337Z,111.20
2023-03-08T11:35:59.218Z,110.90
2023-03-08T11:38:30.720Z,111.83
2023-03-08T11:41:41.619Z,111.10
2023-03-08T11:44:54.572Z,111.03
2023-03-08T11:48:17.200Z,111.20
2023-03-08T11:51:06.759Z,111.67
2023-03-08T11:54:22.734Z,111.77
2023-03-08T11:56:59.859Z,111.37
2023-03-08T11:59:32.573Z,110.40
2023-03-08T12:02:10.217Z,112.07
2023-03-08T12:04:48.156Z,111.97
2023-03-08T12:07:30.016Z,111.60
2023-03-08T12:10:16.043Z,111.77
2023-03-08T12:13:00.097Z,111.87
2023-03-08T12:16:09.120Z,112.07
2023-03-08T12:19:06.466Z,111.57
2023-03-08T12:22:15.569Z,111.87
2023-03-08T12:25:13.719Z,111.00
2023-03-08T12:27:56.252Z,111.97
2023-03-08T12:31:26.064Z,111.57
2023-03-08T12:33:57.510Z,112.70
2023-03-08T12:36:43.207Z,110.90
2023-03-08T12:40:03.768Z,111.80
2023-03-08T12:42:36.083Z,110.57
2023-03-08T12:45:19.460Z,111.60
2023-03-08T12:48:04.764Z,111.37
2023-03-08T12:51:13.349Z,112.70
2023-03-08T12:54:01.638Z,111.00
2023-03-08T12:56:52.446Z,112.07
2023-03-08T12:59:19.713Z,112.50
2023-03-08T13:02:00.519Z,112.13
2023-03-08T13:04:41.690Z,112.03
2023-03-08T13:07:40.133Z,112.23
2023-03-08T13:10:32.109Z,112.57
2023-03-08T13:13:09.449Z,111.30
2023-03-08T13:15:39.168Z,112.27
2023-03-08T13:18:09.393Z,111.97
2023-03-08T13:20:41.445Z,112.07
2023-03-08T13:23:14.987Z,112.00
2023-03-08T13:26:09.135Z,112.80
2023-03-08T13:28:47.818Z,112.43
2023-03-08T13:31:26.629Z,110.97
2023-03-08T13:33:57.942Z,112.17
2023-03-08T13:36:34.463Z,112.40
2023-03-08T13:39:19.262Z,112.80
2023-03-08T13:41:48.234Z,112.47
2023-03-08T13:44:25.999Z,112.77
2023-03-08T13:47:03.792Z,111.93
2023-03-08T13:49:43.225Z,112.90
2023-03-08T13:52:29.226Z,112.80
2023-03-08T13:55:03.682Z,112.60
2023-03-08T13:57:37.994Z,113.57
2023-03-08T14:00:30.005Z,112.70
2023-03-08T14:02:59.176Z,113.27
2023-03-08T14:05:34.436Z,113.27
2023-03-08T14:08:07.464Z,113.60
2023-03-08T14:10:53.574Z,112.27
2023-03-08T14:13:42.537Z,112.20
2023-03-08T14:16:41.896Z,113.00
2023-03-08T14:19:28.086Z,113.67
2023-03-08T14:22:21.197Z,113.93
2023-03-08T14:25:01.960Z,113.47
2023-03-08T14:27:41.639Z,113.20
2023-03-08T14:30:14.596Z,113.07
2023-03-08T14:32:56.658Z,113.70
2023-03-08T14:35:31.483Z,114.17
2023-03-08T14:38:00.786Z,114.67
2023-03-08T14:40:37.590Z,111.50
2023-03-08T14:43:15.266Z,114.10
2023-03-08T14:45:57.726Z,113.97
2023-03-08T14:48:31.764Z,114.10
2023-03-08T14:51:04.521Z,113.80
2023-03-08T14:53:40.128Z,113.97
2023-03-08T14:56:16.616Z,113.17
2023-03-08T14:58:50.528Z,113.93
2023-03-08T15:01:35.494Z,114.20
2023-03-08T15:04:04.754Z,114.47
2023-03-08T15:06:36.093Z,114.57
2023-03-08T15:09:08.116Z,114.10
2023-03-08T15:11:35.653Z,113.60
2023-03-08T15:14:03.105Z,111.47
2023-03-08T15:16:30.521Z,113.77
2023-03-08T15:18:57.953Z,114.40
2023-03-08T15:21:28.456Z,114.70
2023-03-08T15:23:57.034Z,113.77
2023-03-08T15:26:32.375Z,115.10
2023-03-08T15:29:04.313Z,114.97
2023-03-08T15:31:32.265Z,113.43
2023-03-08T15:34:01.395Z,114.37
2023-03-08T15:36:32.401Z,112.67
2023-03-08T15:39:01.195Z,114.93
2023-03-08T15:41:28.196Z,114.80
2023-03-08T15:43:55.566Z,114.73
2023-03-08T15:46:22.999Z,115.23
2023-03-08T15:48:51.066Z,113.87
2023-03-08T15:51:21.612Z,112.03
2023-03-08T15:53:49.761Z,114.40
2023-03-08T15:56:17.628Z,115.43
2023-03-08T15:58:45.144Z,115.40
2023-03-08T16:01:12.176Z,115.67
2023-03-08T16:03:40.171Z,115.57
2023-03-08T16:06:13.137Z,114.93
2023-03-08T16:08:42.032Z,113.20
2023-03-08T16:11:13.465Z,114.47
2023-03-08T16:13:40.663Z,115.70
2023-03-08T16:16:08.197Z,115.30
2023-03-08T16:18:36.866Z,115.17
2023-03-08T16:21:09.420Z,115.23
2023-03-08T16:23:39.049Z,115.27
2023-03-08T16:26:17.409Z,115.77
2023-03-08T16:28:47.081Z,116.07
2023-03-08T16:31:16.792Z,115.60
2023-03-08T16:33:44.491Z,116.17
2023-03-08T16:36:12.602Z,114.17
2023-03-08T16:38:40.752Z,115.60
2023-03-08T16:41:15.376Z,116.00
2023-03-08T16:43:48.335Z,115.60
2023-03-08T16:46:23.076Z,115.97
2023-03-08T16:48:54.354Z,115.20
2023-03-08T16:51:26.691Z,115.67
2023-03-08T16:53:54.756Z,114.97
2023-03-08T16:56:29.050Z,115.63
2023-03-08T16:59:00.040Z,116.07
2023-03-08T17:01:27.588Z,114.57
2023-03-08T17:03:56.902Z,115.87
2023-03-08T17:06:29.616Z,115.63
2023-03-08T17:09:00.804Z,115.43
2023-03-08T17:11:33.366Z,115.37
2023-03-08T17:14:10.898Z,115.70
2023-03-08T17:16:39.756Z,112.07
2023-03-08T17:19:10.858Z,115.13
2023-03-08T17:21:38.384Z,115.30
2023-03-08T17:24:13.407Z,116.07
2023-03-08T17:26:49.984Z,115.27
2023-03-08T17:29:17.434Z,115.30
2023-03-08T17:31:44.780Z,115.57
2023-03-08T17:34:12.067Z,115.37
2023-03-08T17:36:39.825Z,115.53
2023-03-08T17:39:07.254Z,115.57
2023-03-08T17:41:34.339Z,115.60
2023-03-08T17:44:01.588Z,115.77
2023-03-08T17:46:29.310Z,115.20
2023-03-08T17:48:56.489Z,115.30
2023-03-08T17:51:28.732Z,115.57
2023-03-08T17:53:57.993Z,115.77
2023-03-08T17:56:29.710Z,115.67
2023-03-08T17:59:00.688Z,115.67
2023-03-08T18:01:31.230Z,115.57
2023-03-08T18:03:58.941Z,113.83
2023-03-08T18:06:33.468Z,115.70
2023-03-08T18:09:12.375Z,116.10
2023-03-08T18:11:41.338Z,115.87
2023-03-08T18:14:12.834Z,115.87
2023-03-08T18:16:41.200Z,115.60
2023-03-08T18:19:08.684Z,115.03
2023-03-08T18:21:38.859Z,115.80
2023-03-08T18:24:10.508Z,115.87
2023-03-08T18:26:37.616Z,114.40
2023-03-08T18:29:05.026Z,115.10
2023-03-08T18:31:34.882Z,115.70
2023-03-08T18:34:02.699Z,115.30
2023-03-08T18:36:30.107Z,115.77
2023-03-08T18:38:58.192Z,115.97
2023-03-08T18:41:29.382Z,115.50
2023-03-08T18:43:59.404Z,115.40
2023-03-08T18:46:30.408Z,115.27
2023-03-08T18:49:08.226Z,115.77
2023-03-08T18:51:39.306Z,115.00
2023-03-08T18:54:09.719Z,115.47
2023-03-08T18:56:36.868Z,115.73
2023-03-08T18:59:07.467Z,114.93
2023-03-08T19:01:36.504Z,114.73
2023-03-08T19:04:06.164Z,115.30
2023-03-08T19:06:35.057Z,115.63
2023-03-08T19:09:14.495Z,115.67
2023-03-08T19:11:43.172Z,115.13
2023-03-08T19:14:12.412Z,115.57
2023-03-08T19:16:39.927Z,115.33
2023-03-08T19:19:12.260Z,115.00
2023-03-08T19:21:44.301Z,115.27
2023-03-08T19:24:20.071Z,113.27
2023-03-08T19:26:51.177Z,115.30
2023-03-08T19:29:31.186Z,115.10
2023-03-08T19:32:06.638Z,115.27
2023-03-08T19:34:39.492Z,115.10
2023-03-08T19:37:09.512Z,115.40
2023-03-08T19:39:38.709Z,115.27
2023-03-08T19:42:14.796Z,112.60
2023-03-08T19:44:44.230Z,114.80
2023-03-08T19:47:11.898Z,115.57
2023-03-08T19:49:39.968Z,115.10
2023-03-08T19:52:08.034Z,115.27
2023-03-08T19:54:35.728Z,115.00
2023-03-08T19:57:05.322Z,115.37
2023-03-08T19:59:33.156Z,115.77
2023-03-08T20:02:00.797Z,115.00
2023-03-08T20:04:29.353Z,115.37
2023-03-08T20:07:01.523Z,115.47
2023-03-08T20:09:29.099Z,115.30
2023-03-08T20:11:58.790Z,115.30
2023-03-08T20:14:28.052Z,115.57
2023-03-08T20:16:56.233Z,114.83
2023-03-08T20:19:23.922Z,115.57
2023-03-08T20:21:51.047Z,115.73
2023-03-08T20:24:19.257Z,115.57
2023-03-08T20:26:46.901Z,115.90
2023-03-08T20:29:14.693Z,115.53
2023-03-08T20:31:42.774Z,116.17
2023-03-08T20:34:11.011Z,115.30
2023-03-08T20:36:38.810Z,115.17
2023-03-08T20:39:06.628Z,115.10
2023-03-08T20:41:34.331Z,114.60
2023-03-08T20:44:01.527Z,115.27
2023-03-08T20:46:33.449Z,115.37
2023-03-08T20:49:01.338Z,114.40
2023-03-08T20:51:29.512Z,115.57
2023-03-08T20:53:57.337Z,115.00
2023-03-08T20:56:26.215Z,115.27
2023-03-08T20:58:56.453Z,116.07
2023-03-08T21:01:29.228Z,115.00
2023-03-08T21:03:56.743Z,114.97
2023-03-08T21:06:30.006Z,113.77
2023-03-08T21:08:58.830Z,114.90
2023-03-08T21:11:26.110Z,115.53
2023-03-08T21:13:55.258Z,115.37
2023-03-08T21:16:24.883Z,114.73
2023-03-08T21:18:56.104Z,115.07
2023-03-08T21:21:37.034Z,114.20
2023-03-08T21:24:18.013Z,114.97
2023-03-08T21:26:45.959Z,113.57
2023-03-08T21:29:17.965Z,114.73
2023-03-08T21:31:50.598Z,115.00
2023-03-08T21:34:19.514Z,115.57
2023-03-08T21:36:46.975Z,115.20
2023-03-08T21:39:15.190Z,114.90
2023-03-08T21:41:46.057Z,115.37
2023-03-08T21:44:18.271Z,115.37
2023-03-08T21:46:46.788Z,115.67
2023-03-08T21:49:25.768Z,115.37
2023-03-08T21:51:55.675Z,114.60
2023-03-08T21:54:26.406Z,115.27
2023-03-08T21:56:53.866Z,114.27
2023-03-08T21:59:24.009Z,114.40
2023-03-08T22:01:53.972Z,114.97
2023-03-08T22:04:21.713Z,114.20
2023-03-08T22:06:49.095Z,114.67
2023-03-08T22:09:16.590Z,115.17
2023-03-08T22:11:44.054Z,114.80
2023-03-08T22:14:11.462Z,114.57
2023-03-08T22:16:42.181Z,114.97
2023-03-08T22:19:11.130Z,114.83
2023-03-08T22:21:38.622Z,114.10
2023-03-08T22:24:06.338Z,115.07
2023-03-08T22:26:33.774Z,114.07
2023-03-08T22:29:01.417Z,114.67
2023-03-08T22:31:30.604Z,114.60
2023-03-08T22:33:58.418Z,114.40
2023-03-08T22:36:26.111Z,114.87
2023-03-08T22:38:53.603Z,114.77
2023-03-08T22:41:27.310Z,114.50
2023-03-08T22:43:54.559Z,115.13
2023-03-08T22:46:27.867Z,113.30
2023-03-08T22:48:58.297Z,111.30
2023-03-08T22:51:28.186Z,114.57
2023-03-08T22:53:56.113Z,114.60
2023-03-08T22:56:30.091Z,114.97
2023-03-08T22:58:58.389Z,114.50
2023-03-08T23:01:28.299Z,113.10
2023-03-08T23:03:59.250Z,114.30
2023-03-08T23:06:29.008Z,114.83
2023-03-08T23:09:06.113Z,115.07
2023-03-08T23:11:34.851Z,114.97
2023-03-08T23:14:03.232Z,114.70
2023-03-08T23:16:30.838Z,111.37
2023-03-08T23:18:57.988Z,114.47
2023-03-08T23:21:33.346Z,113.90
2023-03-08T23:24:00.802Z,114.63
2023-03-08T23:26:28.604Z,114.50
2023-03-08T23:29:00.233Z,114.30
2023-03-08T23:31:31.091Z,113.50
2023-03-08T23:34:00.793Z,114.47
2023-03-08T23:36:31.724Z,113.83
2023-03-08T23:39:01.746Z,113.20
2023-03-08T23:41:30.875Z,114.00
2023-03-08T23:44:01.560Z,114.00
2023-03-08T23:46:30.023Z,113.90
2023-03-08T23:49:00.079Z,112.30
2023-03-08T23:51:31.038Z,113.20
2023-03-08T23:54:01.833Z,113.30
2023-03-08T23:56:39.814Z,113.90
2023-03-08T23:59:33.140Z,113.40
